x

Halifax Harbour (44258) Wave Buoy

6:00am - Fri 29th Aug 2014 All times are EDT. -4 hours from GMT.

  • Sig Wave height 5.2ft
  • Peak Period 14s
  • Wind
    25mph, 29mph gusts
  • Air Temp 60°f
  • Sea Pressure 1008.7mb
  • Halifax Harbour
  • Halifax Harbour

More Historic Weather Station data

Upgrade to MSW Pro to gain access to the past 30 days of data for over 8000 Wavebouys and Weather Stations around the globe.

Join Pro

Comparision Forecast

View Surf forecast
   
Fri 08/29 6:00am 5ft 14s 25 29 mph 1008.7mb 60f
5:00am  -   -  25
mph
- -
4:00am 5ft 14s 25 31 mph 1006.4mb 62f
3:00am 4.5ft 12s 22 27 mph 1005.7mb 62f
2:00am 5ft 11s 20 27 mph 1005.2mb 63f
1:00am 5.5ft 13s 18 22 mph 1004.3mb 64f
Thu 08/28 11:00pm 6ft 12s 16 20 mph 1003.9mb 65f
10:00pm 6ft 12s 11
mph
1003.3mb 65f
9:00pm 6ft 13s 11 13 mph 1002.7mb 66f
8:00pm 5ft 14s 13 18 mph 1002.3mb 68f
7:00pm 4.5ft 13s 4 7 mph 1001.9mb 66f
6:00pm 5ft 14s 4 7 mph 1001.3mb 65f
5:00pm 5ft 14s 7 9 mph 1001.8mb 66f
4:00pm 5ft 14s 4 9 mph 1002.3mb 67f
3:00pm 5ft 15s 4 7 mph 1002.9mb 66f
2:00pm 5.5ft 14s 2 4 mph 1004mb 64f
1:00pm 6ft 14s 4
mph
1004.7mb 64f
12:00pm 6ft 13s 7 9 mph 1005.1mb 64f
11:00am 6ft 15s 7 9 mph 1006mb 63f
10:00am 6ft 16s 7 9 mph 1005.9mb 63f
9:00am 5.5ft 12s 9 13 mph 1006mb 62f
8:00am 5ft 12s 4 7 mph 1006.3mb 63f
7:00am 4.5ft 12s 7 9 mph 1007.5mb 63f
6:00am 4.5ft 12s 11 13 mph 1007.3mb 62f
5:00am 4.5ft 10s 11 13 mph 1007.1mb 62f
4:00am 4.5ft 6s 11 13 mph 1007.8mb 63f
3:00am 4.5ft 6s 11 13 mph 1008.1mb 63f
2:00am 4.5ft 6s 13 18 mph 1008.5mb 64f
1:00am 4.5ft 6s 16 18 mph 1009.2mb 64f
12:00am 4.5ft 5s 13 16 mph 1009.9mb 64f
Wed 08/27 11:00pm 4.5ft 6s 16 18 mph 1010.4mb 65f
10:00pm 5ft 6s 18 20 mph 1010.3mb 65f
9:00pm 4.5ft 6s 16 18 mph 1010.7mb 66f
8:00pm 4.5ft 6s 13 18 mph 1010.9mb 66f
7:00pm 4.5ft 6s 16 20 mph 1010.5mb 66f
6:00pm 4.5ft 6s 18 20 mph 1010.4mb 66f
5:00pm 4.5ft 6s 16 18 mph 1010.6mb 67f
4:00pm 5ft 6s 18 22 mph 1010.5mb 68f
3:00pm 5ft 6s 22 27 mph 1010.7mb 67f
2:00pm 5ft 5s 20 25 mph 1011.4mb 67f
1:00pm 4.5ft 5s 22 27 mph 1012mb 67f
12:00pm 3.5ft 4s 22 27 mph 1012.6mb 67f
11:00am 3.5ft 8s 18 22 mph 1013.3mb 66f
10:00am 3.5ft 5s 20 25 mph 1013.7mb 66f
9:00am 3.5ft 5s 20 22 mph 1013.8mb 66f
8:00am 3.5ft 5s 18 22 mph 1013.8mb 65f
7:00am 3.5ft 5s 16 18 mph 1014.5mb 65f
6:00am 3.5ft 5s 16 18 mph 1015.2mb 64f
5:00am 3.5ft 8s 13 18 mph 1015.3mb 64f
4:00am 3.5ft 5s 20 25 mph 1015.6mb 65f
3:00am 3.5ft 5s 20 22 mph 1015.8mb 65f
2:00am 3.5ft 6s 18 22 mph 1015.7mb 65f
1:00am 4ft 5s 20 25 mph 1016.6mb 65f
12:00am 4.5ft 5s 22 25 mph 1016.5mb 66f
Tue 08/26 11:00pm 4.5ft 5s 20 25 mph 1016.8mb 67f
10:00pm 4.5ft 5s 22 27 mph 1017mb 67f
9:00pm 4.5ft 5s 22 25 mph 1017.7mb 67f
8:00pm 4ft 4s 18 22 mph 1017.8mb 68f
7:00pm 4ft 8s 20 25 mph 1018mb 68f
6:00pm 3.5ft 8s 18 22 mph 1018.3mb 68f
5:00pm 3.5ft 9s 16 18 mph 1018.7mb 68f
4:00pm 3.5ft 9s 13 18 mph 1019mb 68f
3:00pm 3.5ft 8s 16 18 mph 1019.5mb 67f
2:00pm 3.5ft 8s 16 20 mph 1020mb 67f
1:00pm 3.5ft 9s 16 18 mph 1020.6mb 67f
12:00pm 3.5ft 9s 18 20 mph 1021mb 67f
11:00am 3ft 8s 18 20 mph 1021.5mb 66f
10:00am 3.5ft 8s 16 18 mph 1021.6mb 66f
9:00am 3ft 8s 13 16 mph 1021.7mb 66f
8:00am 3ft 9s 9 11 mph 1021.6mb 65f
7:00am 3ft 9s 9 11 mph 1021.7mb 64f
6:00am 2.5ft 9s 9
mph
1021.6mb 64f
5:00am 3ft 8s 9
mph
1021.3mb 64f
4:00am 3ft 9s 9 11 mph 1021mb 64f
3:00am 3.5ft 9s 9 11 mph 1020.8mb 65f
2:00am 3.5ft 9s 13 16 mph 1020.8mb 65f
1:00am 4ft 8s 13 16 mph 1020.9mb 66f
12:00am 4ft 8s 18 22 mph 1020.6mb 67f
Mon 08/25 11:00pm 3.5ft 8s 18 20 mph 1020.6mb 67f
10:00pm 4ft 8s 18 20 mph 1020.6mb 67f
9:00pm 4ft 9s 16 18 mph 1020.8mb 67f
8:00pm 4ft 9s 16 18 mph 1020.7mb 67f
7:00pm 3.5ft 10s 18 20 mph 1020mb 67f
6:00pm 3.5ft 9s 18 20 mph 1019.7mb 67f
5:00pm 3.5ft 8s 18 20 mph 1019.7mb 67f
4:00pm 3ft 7s 16 18 mph 1019.8mb 67f
3:00pm 2.5ft 8s 16 18 mph 1020mb 67f
2:00pm 2.5ft 9s 16 18 mph 1020.4mb 67f
1:00pm 2.5ft 9s 13 18 mph 1020.5mb 66f